Flight Track Log - Related Links

Times and Time Zones

All times are in EDT time to prevent confusion due to time zone crossing. See the DAL1095 flight status page for this flight to view local times or setup timezone preferences in your user account.

Time Position Orientation Groundspeed Altitude Reporting Facility
EDT Latitude Longitude Course Direction KTS MPH feet Rate Location/Type
Thu 01:06:14 PM 35.1956 -80.9533 259° West 153 176 1,800  Level Atlanta Center
Thu 01:06:39 PM 35.1789 -80.9539 182° South 161 185 2,500 2,302 Climbing Atlanta Center
Thu 01:07:40 PM 35.1511 -81.0133 240° Southwest 256 295 5,100 2,864 Climbing Atlanta Center
Thu 01:08:07 PM 35.1525 -81.0692 272° West 257 296 6,700 2,414 Climbing Atlanta Center
Thu 01:09:07 PM 35.1458 -81.1431 264° West 263 303 8,600 2,250 Climbing Atlanta Center
Thu 01:10:00 PM 35.1333 -81.5018 270° West  Level FlightAware Approximate
Thu 01:10:07 PM 35.1481 -81.2369 272° West 269 310 11,200  Level Atlanta Center
Thu 01:11:00 PM 35.1333 -81.6503 259° West  Level FlightAware Approximate
Thu 01:11:07 PM 35.1486 -81.3539 270° West 308 354 12,900  Level Atlanta Center
Thu 01:12:07 PM 35.1469 -81.4808 269° West 350 403 15,300 2,300 Climbing Atlanta Center
Thu 01:13:07 PM 35.1414 -81.6156 267° West 383 441 17,500 2,100 Climbing Atlanta Center
Thu 01:14:07 PM 35.1294 -81.7506 264° West 398 458 19,500 1,950 Climbing Atlanta Center
Thu 01:15:07 PM 35.1192 -81.8831 265° West 406 467 21,400 1,850 Climbing Atlanta Center
Thu 01:16:07 PM 35.1072 -82.0256 264° West 412 474 23,200 2,000 Climbing Atlanta Center
Thu 01:17:07 PM 35.0989 -82.1653 266° West 423 487 25,400 2,100 Climbing Atlanta Center
Thu 01:18:07 PM 35.0781 -82.3028 260° West 423 487 27,400 1,300 Climbing Atlanta Center
Thu 01:19:07 PM 35.0294 -82.4256 244° Southwest 405 466 28,000 300 Climbing Atlanta Center
Thu 01:20:07 PM 34.9850 -82.5406 245° Southwest 400 460 28,000  Level Atlanta Center
Thu 01:21:07 PM 34.9406 -82.6503 244° Southwest 380 437 28,000  Level Atlanta Center
Thu 01:22:07 PM 34.8981 -82.7675 246° West 373 429 28,000  Level Atlanta Center
Thu 01:23:07 PM 34.8553 -82.8769 245° Southwest 367 422 28,000 -100 Level Atlanta Center
Thu 01:24:07 PM 34.8122 -82.9761 242° Southwest 367 422 27,800 -800 Descending Atlanta Center
Thu 01:25:07 PM 34.7506 -83.0756 233° Southwest 362 417 26,400 -1,300 Descending Atlanta Center
Thu 01:26:07 PM 34.6781 -83.1622 225° Southwest 367 422 25,200 -1,200 Descending Atlanta Center
Thu 01:27:07 PM 34.6078 -83.2489 225° Southwest 367 422 24,000 -600 Descending Atlanta Center
Thu 01:28:07 PM 34.5289 -83.3328 221° Southwest 372 428 24,000  Level Atlanta Center
Thu 01:29:07 PM 34.4481 -83.4292 225° Southwest 396 456 24,000 -900 Level Atlanta Center
Thu 01:30:07 PM 34.3672 -83.5228 224° Southwest 396 456 22,200 -1,800 Descending Atlanta Center
Thu 01:31:07 PM 34.2819 -83.6214 224° Southwest 390 449 20,400 -2,100 Descending Atlanta Center
Thu 01:32:07 PM 34.2069 -83.7047 223° Southwest 383 441 18,000 -2,300 Descending Atlanta Center
Thu 01:33:07 PM 34.1364 -83.7878 224° Southwest 368 423 15,800 -2,150 Descending Atlanta Center
Thu 01:34:07 PM 34.0656 -83.8658 222° Southwest 361 415 13,700 -1,758 Descending Atlanta Center
Thu 01:34:46 PM 34.0167 -83.9167 221° Southwest 345 397 12,900 -788 Descending Atlanta TRACON
Thu 01:35:46 PM 33.9500 -83.9833 220° Southwest 343 395 12,400 -450 Descending Atlanta TRACON
Thu 01:36:46 PM 33.8667 -84.0500 214° Southwest 334 384 12,000 -190 Descending Atlanta TRACON
Thu 01:37:52 PM 33.7833 -84.1000 207° Southwest 336 387 12,000  Level Atlanta TRACON
Thu 01:38:52 PM 33.7333 -84.1833 234° Southwest 311 358 12,000 -52 Level Atlanta TRACON
Thu 01:39:47 PM 33.7333 -84.2667 270° West 237 273 11,900 -750 Descending Atlanta TRACON
Thu 01:40:52 PM 33.7333 -84.3500 270° West 226 260 10,500 -1,344 Descending Atlanta TRACON
Thu 01:41:52 PM 33.7333 -84.4167 270° West 226 260 9,100 -1,513 Descending Atlanta TRACON
Thu 01:42:47 PM 33.7333 -84.4833 270° West 221 254 7,600 -1,617 Descending Atlanta TRACON
Thu 01:43:47 PM 33.7333 -84.5667 270° West 214 246 6,000 -1,429 Descending Atlanta TRACON
Thu 01:44:53 PM 33.7167 -84.6333 253° West 186 214 4,600 -1,286 Descending Atlanta TRACON
Thu 01:45:53 PM 33.6833 -84.6167 157° South 171 197 3,300 -800 Descending Atlanta TRACON
Thu 01:46:53 PM 33.6667 -84.5667 112° Southeast 169 194 3,000 -571 Descending Atlanta TRACON
Thu 01:47:59 PM 33.6500 -84.5000 107° East 158 182 2,100 -800 Descending Atlanta TRACON
Thu 01:48:53 PM 33.6500 -84.4667 90° East 164 189 1,400 -778 Descending Atlanta TRACON

Login

Don't have an account? Register now (free) for customized features, flight alerts, and more!